aviador You're here:

PAQT Decoded Metar

NUIQSUT in AK, USA
Report Time2018-01-18 09:53:00
UTC Time2018-01-18 10:02:42
Flight Rules lifr LIFR
Wind180° at 06 kt
W.Decomp.*RWY 23: 2.0 kt HW 5.7 kt LCW
W.Rank180° ranks 14
Current wind is below 180° avg. (6.8)
Visibility9999 m
Phenomena:N/A
Clouds:Overcast 003 Hf
Expected CloudBase > 400 ft AGL from Temp-Dew spread
Ceiling300 ft
Temp-15°C (ISA -30)
Dew Point-16°C (92% RH)
AAT-20.6°C
QNH996 hPa
Density Alt-3,133 ft
Elevation39 ft
Report Wrong Elevation
Raw Report
PAQT 180953Z AUTO 18006KT 10SM OVC003 M15/M16 A2941 RMK AO2 UPE23
SLP959 P0000 T11501161 TSNO=

Extra information for PAQT:More info

Metar Taf Metar & Taf Last 4 Metars F.Rules Stats Wind Profile Meteogram Temp Stats Airport Information Weather charts Add Link Nearby VenuesMetar ALERT Operation Metar Decoded Social comments

AIRNAV info for PAQT